sensor_id;sensor_type;location;lat;lon;timestamp;P1;durP1;ratioP1;P2;durP2;ratioP2
5428;SDS011;2737;52.386;9.980;2022-12-19T00:01:04;12.73;;;6.13;;
5428;SDS011;2737;52.386;9.980;2022-12-19T00:03:40;14.83;;;7.03;;
5428;SDS011;2737;52.386;9.980;2022-12-19T00:06:07;15.97;;;6.30;;
5428;SDS011;2737;52.386;9.980;2022-12-19T00:08:36;12.27;;;6.50;;
5428;SDS011;2737;52.386;9.980;2022-12-19T00:11:03;14.10;;;6.00;;
5428;SDS011;2737;52.386;9.980;2022-12-19T00:13:31;12.97;;;6.50;;
5428;SDS011;2737;52.386;9.980;2022-12-19T00:16:01;14.77;;;5.77;;
5428;SDS011;2737;52.386;9.980;2022-12-19T00:18:29;13.33;;;6.20;;
5428;SDS011;2737;52.386;9.980;2022-12-19T00:20:57;15.40;;;6.57;;
5428;SDS011;2737;52.386;9.980;2022-12-19T00:23:26;13.43;;;6.47;;
5428;SDS011;2737;52.386;9.980;2022-12-19T00:25:56;15.23;;;7.20;;
5428;SDS011;2737;52.386;9.980;2022-12-19T00:28:32;16.73;;;6.53;;
5428;SDS011;2737;52.386;9.980;2022-12-19T00:31:00;13.37;;;7.03;;
5428;SDS011;2737;52.386;9.980;2022-12-19T00:33:27;15.23;;;6.80;;
5428;SDS011;2737;52.386;9.980;2022-12-19T00:35:56;13.60;;;6.20;;
5428;SDS011;2737;52.386;9.980;2022-12-19T00:38:23;15.40;;;7.10;;
5428;SDS011;2737;52.386;9.980;2022-12-19T00:40:50;16.67;;;6.63;;
5428;SDS011;2737;52.386;9.980;2022-12-19T00:43:19;16.03;;;6.23;;
5428;SDS011;2737;52.386;9.980;2022-12-19T00:45:46;12.47;;;7.00;;
5428;SDS011;2737;52.386;9.980;2022-12-19T00:48:13;11.17;;;6.30;;
5428;SDS011;2737;52.386;9.980;2022-12-19T00:50:41;19.00;;;7.70;;
5428;SDS011;2737;52.386;9.980;2022-12-19T00:53:08;15.23;;;7.40;;
5428;SDS011;2737;52.386;9.980;2022-12-19T00:55:36;15.93;;;7.17;;
5428;SDS011;2737;52.386;9.980;2022-12-19T00:58:04;16.10;;;7.40;;
5428;SDS011;2737;52.386;9.980;2022-12-19T01:00:32;12.50;;;6.93;;
5428;SDS011;2737;52.386;9.980;2022-12-19T01:02:59;12.57;;;6.93;;
5428;SDS011;2737;52.386;9.980;2022-12-19T01:05:26;14.70;;;7.63;;
5428;SDS011;2737;52.386;9.980;2022-12-19T01:07:53;16.37;;;6.97;;
5428;SDS011;2737;52.386;9.980;2022-12-19T01:10:20;16.27;;;7.97;;
5428;SDS011;2737;52.386;9.980;2022-12-19T01:12:47;14.20;;;6.97;;
5428;SDS011;2737;52.386;9.980;2022-12-19T01:15:14;13.93;;;6.77;;
5428;SDS011;2737;52.386;9.980;2022-12-19T01:17:43;19.80;;;8.27;;
5428;SDS011;2737;52.386;9.980;2022-12-19T01:20:11;19.47;;;7.83;;
5428;SDS011;2737;52.386;9.980;2022-12-19T01:22:40;14.50;;;7.50;;
5428;SDS011;2737;52.386;9.980;2022-12-19T01:25:07;14.80;;;7.50;;
5428;SDS011;2737;52.386;9.980;2022-12-19T01:27:34;18.17;;;7.87;;
5428;SDS011;2737;52.386;9.980;2022-12-19T01:30:02;16.27;;;7.87;;
5428;SDS011;2737;52.386;9.980;2022-12-19T01:32:32;19.43;;;8.37;;
5428;SDS011;2737;52.386;9.980;2022-12-19T01:35:01;19.90;;;8.43;;
5428;SDS011;2737;52.386;9.980;2022-12-19T01:37:28;15.53;;;7.43;;
5428;SDS011;2737;52.386;9.980;2022-12-19T01:39:55;19.93;;;8.47;;
5428;SDS011;2737;52.386;9.980;2022-12-19T01:42:22;21.00;;;7.70;;
5428;SDS011;2737;52.386;9.980;2022-12-19T01:47:49;19.80;;;8.03;;
5428;SDS011;2737;52.386;9.980;2022-12-19T01:50:22;16.80;;;7.77;;
5428;SDS011;2737;52.386;9.980;2022-12-19T01:52:52;16.07;;;8.73;;
5428;SDS011;2737;52.386;9.980;2022-12-19T01:55:20;20.93;;;11.03;;
5428;SDS011;2737;52.386;9.980;2022-12-19T01:57:47;19.37;;;9.30;;
5428;SDS011;2737;52.386;9.980;2022-12-19T02:00:14;18.37;;;8.73;;
5428;SDS011;2737;52.386;9.980;2022-12-19T02:02:42;20.93;;;9.27;;
5428;SDS011;2737;52.386;9.980;2022-12-19T02:05:13;17.73;;;8.87;;
5428;SDS011;2737;52.386;9.980;2022-12-19T02:07:42;15.40;;;9.00;;
5428;SDS011;2737;52.386;9.980;2022-12-19T02:10:10;24.20;;;10.70;;
5428;SDS011;2737;52.386;9.980;2022-12-19T02:12:38;20.33;;;9.50;;
5428;SDS011;2737;52.386;9.980;2022-12-19T02:15:09;20.73;;;10.53;;
5428;SDS011;2737;52.386;9.980;2022-12-19T02:17:38;19.90;;;9.30;;
5428;SDS011;2737;52.386;9.980;2022-12-19T02:20:25;21.73;;;10.20;;
5428;SDS011;2737;52.386;9.980;2022-12-19T02:23:27;20.57;;;9.30;;
5428;SDS011;2737;52.386;9.980;2022-12-19T02:26:13;18.17;;;9.30;;
5428;SDS011;2737;52.386;9.980;2022-12-19T02:28:56;21.07;;;9.90;;
5428;SDS011;2737;52.386;9.980;2022-12-19T02:31:45;23.83;;;10.17;;
5428;SDS011;2737;52.386;9.980;2022-12-19T02:34:18;21.23;;;9.77;;
5428;SDS011;2737;52.386;9.980;2022-12-19T02:36:49;20.50;;;9.60;;
5428;SDS011;2737;52.386;9.980;2022-12-19T02:39:21;19.73;;;9.77;;
5428;SDS011;2737;52.386;9.980;2022-12-19T02:41:53;18.60;;;9.47;;
5428;SDS011;2737;52.386;9.980;2022-12-19T02:44:24;23.80;;;9.97;;
5428;SDS011;2737;52.386;9.980;2022-12-19T02:46:56;21.10;;;9.97;;
5428;SDS011;2737;52.386;9.980;2022-12-19T02:49:27;23.50;;;9.60;;
5428;SDS011;2737;52.386;9.980;2022-12-19T02:51:54;25.20;;;10.30;;
5428;SDS011;2737;52.386;9.980;2022-12-19T02:54:21;22.07;;;9.37;;
5428;SDS011;2737;52.386;9.980;2022-12-19T02:56:49;18.70;;;9.30;;
5428;SDS011;2737;52.386;9.980;2022-12-19T02:59:25;20.57;;;9.70;;
5428;SDS011;2737;52.386;9.980;2022-12-19T03:02:03;20.50;;;9.20;;
5428;SDS011;2737;52.386;9.980;2022-12-19T03:04:40;22.13;;;10.73;;
5428;SDS011;2737;52.386;9.980;2022-12-19T03:07:16;21.27;;;9.50;;
5428;SDS011;2737;52.386;9.980;2022-12-19T03:09:51;23.80;;;10.90;;
5428;SDS011;2737;52.386;9.980;2022-12-19T03:12:29;19.73;;;10.10;;
5428;SDS011;2737;52.386;9.980;2022-12-19T03:14:59;17.93;;;8.97;;
5428;SDS011;2737;52.386;9.980;2022-12-19T03:17:30;24.97;;;9.63;;
5428;SDS011;2737;52.386;9.980;2022-12-19T03:20:03;19.37;;;9.50;;
5428;SDS011;2737;52.386;9.980;2022-12-19T03:22:33;19.20;;;9.90;;
5428;SDS011;2737;52.386;9.980;2022-12-19T03:25:00;23.93;;;11.10;;
5428;SDS011;2737;52.386;9.980;2022-12-19T03:27:28;18.43;;;9.17;;
5428;SDS011;2737;52.386;9.980;2022-12-19T03:30:01;20.93;;;10.53;;
5428;SDS011;2737;52.386;9.980;2022-12-19T03:32:32;23.80;;;10.20;;
5428;SDS011;2737;52.386;9.980;2022-12-19T03:35:02;24.20;;;10.30;;
5428;SDS011;2737;52.386;9.980;2022-12-19T03:37:32;22.33;;;10.20;;
5428;SDS011;2737;52.386;9.980;2022-12-19T03:40:03;24.30;;;9.50;;
5428;SDS011;2737;52.386;9.980;2022-12-19T03:42:34;20.47;;;9.77;;
5428;SDS011;2737;52.386;9.980;2022-12-19T03:45:22;19.03;;;8.90;;
5428;SDS011;2737;52.386;9.980;2022-12-19T03:47:58;18.50;;;9.60;;
5428;SDS011;2737;52.386;9.980;2022-12-19T03:50:33;21.70;;;8.93;;
5428;SDS011;2737;52.386;9.980;2022-12-19T03:53:08;18.03;;;9.33;;
5428;SDS011;2737;52.386;9.980;2022-12-19T03:55:46;20.50;;;9.90;;
5428;SDS011;2737;52.386;9.980;2022-12-19T03:58:21;24.57;;;9.90;;
5428;SDS011;2737;52.386;9.980;2022-12-19T04:00:53;18.93;;;10.00;;
5428;SDS011;2737;52.386;9.980;2022-12-19T04:03:23;19.73;;;9.60;;
5428;SDS011;2737;52.386;9.980;2022-12-19T04:05:51;21.77;;;10.70;;
5428;SDS011;2737;52.386;9.980;2022-12-19T04:08:20;20.93;;;9.50;;
5428;SDS011;2737;52.386;9.980;2022-12-19T04:10:49;25.77;;;10.90;;
5428;SDS011;2737;52.386;9.980;2022-12-19T04:13:19;20.47;;;10.00;;
5428;SDS011;2737;52.386;9.980;2022-12-19T04:15:53;22.53;;;9.50;;
5428;SDS011;2737;52.386;9.980;2022-12-19T04:18:30;15.20;;;8.53;;
5428;SDS011;2737;52.386;9.980;2022-12-19T04:21:00;21.63;;;10.87;;
5428;SDS011;2737;52.386;9.980;2022-12-19T04:23:34;20.47;;;9.40;;
5428;SDS011;2737;52.386;9.980;2022-12-19T04:26:07;20.93;;;10.27;;
5428;SDS011;2737;52.386;9.980;2022-12-19T04:28:37;18.30;;;9.90;;
5428;SDS011;2737;52.386;9.980;2022-12-19T04:31:09;22.63;;;10.27;;
5428;SDS011;2737;52.386;9.980;2022-12-19T04:33:39;22.43;;;10.20;;
5428;SDS011;2737;52.386;9.980;2022-12-19T04:36:06;18.40;;;9.50;;
5428;SDS011;2737;52.386;9.980;2022-12-19T04:38:35;25.33;;;11.03;;
5428;SDS011;2737;52.386;9.980;2022-12-19T04:41:02;22.70;;;10.50;;
5428;SDS011;2737;52.386;9.980;2022-12-19T04:43:29;24.10;;;11.10;;
5428;SDS011;2737;52.386;9.980;2022-12-19T04:45:56;23.53;;;10.40;;
5428;SDS011;2737;52.386;9.980;2022-12-19T04:48:23;23.23;;;11.43;;
5428;SDS011;2737;52.386;9.980;2022-12-19T04:50:52;24.23;;;11.10;;
5428;SDS011;2737;52.386;9.980;2022-12-19T04:53:20;21.90;;;10.37;;
5428;SDS011;2737;52.386;9.980;2022-12-19T04:55:47;29.23;;;11.23;;
5428;SDS011;2737;52.386;9.980;2022-12-19T04:58:14;21.47;;;10.77;;
5428;SDS011;2737;52.386;9.980;2022-12-19T05:00:41;19.90;;;9.83;;
5428;SDS011;2737;52.386;9.980;2022-12-19T05:03:08;23.73;;;10.93;;
5428;SDS011;2737;52.386;9.980;2022-12-19T05:05:42;25.30;;;10.80;;
5428;SDS011;2737;52.386;9.980;2022-12-19T05:08:10;25.63;;;11.00;;
5428;SDS011;2737;52.386;9.980;2022-12-19T05:10:37;19.20;;;10.20;;
5428;SDS011;2737;52.386;9.980;2022-12-19T05:13:04;18.43;;;9.80;;
5428;SDS011;2737;52.386;9.980;2022-12-19T05:15:31;25.27;;;11.97;;
5428;SDS011;2737;52.386;9.980;2022-12-19T05:17:58;19.43;;;9.53;;
5428;SDS011;2737;52.386;9.980;2022-12-19T05:20:25;28.33;;;10.27;;
5428;SDS011;2737;52.386;9.980;2022-12-19T05:22:53;23.20;;;10.10;;
5428;SDS011;2737;52.386;9.980;2022-12-19T05:25:21;25.43;;;9.90;;
5428;SDS011;2737;52.386;9.980;2022-12-19T05:27:48;17.47;;;9.13;;
5428;SDS011;2737;52.386;9.980;2022-12-19T05:30:15;24.30;;;10.63;;
5428;SDS011;2737;52.386;9.980;2022-12-19T05:32:42;22.73;;;10.30;;
5428;SDS011;2737;52.386;9.980;2022-12-19T05:35:09;38.43;;;13.73;;
5428;SDS011;2737;52.386;9.980;2022-12-19T05:37:36;56.13;;;20.60;;
5428;SDS011;2737;52.386;9.980;2022-12-19T05:40:04;23.57;;;9.93;;
5428;SDS011;2737;52.386;9.980;2022-12-19T05:42:33;26.83;;;13.20;;
5428;SDS011;2737;52.386;9.980;2022-12-19T05:45:00;46.03;;;21.17;;
5428;SDS011;2737;52.386;9.980;2022-12-19T05:47:27;30.40;;;14.70;;
5428;SDS011;2737;52.386;9.980;2022-12-19T05:49:54;30.13;;;14.83;;
5428;SDS011;2737;52.386;9.980;2022-12-19T05:52:21;30.40;;;13.70;;
5428;SDS011;2737;52.386;9.980;2022-12-19T05:54:48;36.70;;;16.97;;
5428;SDS011;2737;52.386;9.980;2022-12-19T05:57:16;32.67;;;14.67;;
5428;SDS011;2737;52.386;9.980;2022-12-19T05:59:44;26.40;;;12.40;;
5428;SDS011;2737;52.386;9.980;2022-12-19T06:02:11;24.30;;;11.30;;
5428;SDS011;2737;52.386;9.980;2022-12-19T06:04:38;20.20;;;11.40;;
5428;SDS011;2737;52.386;9.980;2022-12-19T06:07:05;35.10;;;17.80;;
5428;SDS011;2737;52.386;9.980;2022-12-19T06:09:32;24.90;;;11.87;;
5428;SDS011;2737;52.386;9.980;2022-12-19T06:11:59;24.23;;;11.33;;
5428;SDS011;2737;52.386;9.980;2022-12-19T06:14:26;31.53;;;15.20;;
5428;SDS011;2737;52.386;9.980;2022-12-19T06:16:55;26.90;;;13.03;;
5428;SDS011;2737;52.386;9.980;2022-12-19T06:19:22;44.53;;;19.80;;
5428;SDS011;2737;52.386;9.980;2022-12-19T06:21:49;24.13;;;11.83;;
5428;SDS011;2737;52.386;9.980;2022-12-19T06:24:16;32.50;;;16.40;;
5428;SDS011;2737;52.386;9.980;2022-12-19T06:26:44;38.10;;;17.33;;
5428;SDS011;2737;52.386;9.980;2022-12-19T06:29:11;54.23;;;23.30;;
5428;SDS011;2737;52.386;9.980;2022-12-19T06:31:38;32.80;;;14.67;;
5428;SDS011;2737;52.386;9.980;2022-12-19T06:34:07;33.13;;;15.10;;
5428;SDS011;2737;52.386;9.980;2022-12-19T06:36:35;28.50;;;13.13;;
5428;SDS011;2737;52.386;9.980;2022-12-19T06:39:04;24.40;;;12.43;;
5428;SDS011;2737;52.386;9.980;2022-12-19T06:41:32;29.10;;;13.50;;
5428;SDS011;2737;52.386;9.980;2022-12-19T06:44:16;27.83;;;13.07;;
5428;SDS011;2737;52.386;9.980;2022-12-19T06:46:43;27.90;;;13.30;;
5428;SDS011;2737;52.386;9.980;2022-12-19T06:49:12;28.73;;;13.23;;
5428;SDS011;2737;52.386;9.980;2022-12-19T06:51:39;23.23;;;11.60;;
5428;SDS011;2737;52.386;9.980;2022-12-19T06:54:06;33.40;;;16.13;;
5428;SDS011;2737;52.386;9.980;2022-12-19T06:56:34;29.13;;;14.00;;
5428;SDS011;2737;52.386;9.980;2022-12-19T06:59:03;27.57;;;12.40;;
5428;SDS011;2737;52.386;9.980;2022-12-19T07:01:32;23.37;;;11.97;;
5428;SDS011;2737;52.386;9.980;2022-12-19T07:04:14;25.73;;;11.27;;
5428;SDS011;2737;52.386;9.980;2022-12-19T07:06:44;27.97;;;12.10;;
5428;SDS011;2737;52.386;9.980;2022-12-19T07:09:11;24.40;;;11.70;;
5428;SDS011;2737;52.386;9.980;2022-12-19T07:11:38;31.43;;;14.73;;
5428;SDS011;2737;52.386;9.980;2022-12-19T07:14:05;25.23;;;12.80;;
5428;SDS011;2737;52.386;9.980;2022-12-19T07:16:32;24.63;;;11.80;;
5428;SDS011;2737;52.386;9.980;2022-12-19T07:19:00;31.03;;;12.13;;
5428;SDS011;2737;52.386;9.980;2022-12-19T07:21:28;27.87;;;11.87;;
5428;SDS011;2737;52.386;9.980;2022-12-19T07:23:55;23.13;;;10.60;;
5428;SDS011;2737;52.386;9.980;2022-12-19T07:26:22;33.53;;;15.73;;
5428;SDS011;2737;52.386;9.980;2022-12-19T07:28:49;27.70;;;13.00;;
5428;SDS011;2737;52.386;9.980;2022-12-19T07:31:16;22.90;;;12.27;;
5428;SDS011;2737;52.386;9.980;2022-12-19T07:33:43;27.97;;;14.37;;
5428;SDS011;2737;52.386;9.980;2022-12-19T07:36:10;23.83;;;11.77;;
5428;SDS011;2737;52.386;9.980;2022-12-19T07:38:39;37.63;;;14.50;;
5428;SDS011;2737;52.386;9.980;2022-12-19T07:41:06;20.67;;;11.10;;
5428;SDS011;2737;52.386;9.980;2022-12-19T07:43:33;30.00;;;12.40;;
5428;SDS011;2737;52.386;9.980;2022-12-19T07:46:00;26.40;;;12.93;;
5428;SDS011;2737;52.386;9.980;2022-12-19T07:48:29;24.40;;;12.60;;
5428;SDS011;2737;52.386;9.980;2022-12-19T07:50:56;30.87;;;13.57;;
5428;SDS011;2737;52.386;9.980;2022-12-19T07:53:23;24.20;;;12.13;;
5428;SDS011;2737;52.386;9.980;2022-12-19T07:55:52;31.73;;;14.10;;
5428;SDS011;2737;52.386;9.980;2022-12-19T07:58:19;30.77;;;15.20;;
5428;SDS011;2737;52.386;9.980;2022-12-19T08:00:52;29.57;;;14.23;;
5428;SDS011;2737;52.386;9.980;2022-12-19T08:03:19;31.13;;;14.70;;
5428;SDS011;2737;52.386;9.980;2022-12-19T08:05:46;31.27;;;14.33;;
5428;SDS011;2737;52.386;9.980;2022-12-19T08:08:13;28.60;;;13.23;;
5428;SDS011;2737;52.386;9.980;2022-12-19T08:10:40;29.53;;;14.20;;
5428;SDS011;2737;52.386;9.980;2022-12-19T08:13:09;35.50;;;14.63;;
5428;SDS011;2737;52.386;9.980;2022-12-19T08:15:39;33.03;;;14.80;;
5428;SDS011;2737;52.386;9.980;2022-12-19T08:18:06;35.40;;;15.77;;
5428;SDS011;2737;52.386;9.980;2022-12-19T08:20:33;30.70;;;15.97;;
5428;SDS011;2737;52.386;9.980;2022-12-19T08:23:00;34.17;;;15.30;;
5428;SDS011;2737;52.386;9.980;2022-12-19T08:25:27;32.60;;;15.60;;
5428;SDS011;2737;52.386;9.980;2022-12-19T08:27:54;35.33;;;17.07;;
5428;SDS011;2737;52.386;9.980;2022-12-19T08:30:23;31.57;;;14.80;;
5428;SDS011;2737;52.386;9.980;2022-12-19T08:32:50;35.27;;;14.60;;
5428;SDS011;2737;52.386;9.980;2022-12-19T08:35:17;29.33;;;13.93;;
5428;SDS011;2737;52.386;9.980;2022-12-19T08:37:44;35.43;;;15.60;;
5428;SDS011;2737;52.386;9.980;2022-12-19T08:40:11;37.93;;;17.90;;
5428;SDS011;2737;52.386;9.980;2022-12-19T08:42:38;40.87;;;16.80;;
5428;SDS011;2737;52.386;9.980;2022-12-19T08:45:06;33.83;;;16.70;;
5428;SDS011;2737;52.386;9.980;2022-12-19T08:47:35;39.20;;;16.60;;
5428;SDS011;2737;52.386;9.980;2022-12-19T08:50:02;40.07;;;18.50;;
5428;SDS011;2737;52.386;9.980;2022-12-19T08:52:30;36.73;;;17.60;;
5428;SDS011;2737;52.386;9.980;2022-12-19T08:54:57;42.43;;;19.77;;
5428;SDS011;2737;52.386;9.980;2022-12-19T08:57:24;41.17;;;18.80;;
5428;SDS011;2737;52.386;9.980;2022-12-19T08:59:51;41.17;;;19.83;;
5428;SDS011;2737;52.386;9.980;2022-12-19T09:02:18;36.80;;;18.80;;
5428;SDS011;2737;52.386;9.980;2022-12-19T09:04:47;45.00;;;20.87;;
5428;SDS011;2737;52.386;9.980;2022-12-19T09:07:14;36.97;;;17.83;;
5428;SDS011;2737;52.386;9.980;2022-12-19T09:09:41;39.80;;;18.07;;
5428;SDS011;2737;52.386;9.980;2022-12-19T09:12:08;47.47;;;20.60;;
5428;SDS011;2737;52.386;9.980;2022-12-19T09:14:37;48.23;;;20.30;;
5428;SDS011;2737;52.386;9.980;2022-12-19T09:17:04;34.63;;;16.20;;
5428;SDS011;2737;52.386;9.980;2022-12-19T09:19:31;30.50;;;14.60;;
5428;SDS011;2737;52.386;9.980;2022-12-19T09:22:00;27.07;;;13.73;;
5428;SDS011;2737;52.386;9.980;2022-12-19T09:24:27;28.83;;;13.70;;
5428;SDS011;2737;52.386;9.980;2022-12-19T09:26:54;30.33;;;12.80;;
5428;SDS011;2737;52.386;9.980;2022-12-19T09:29:21;28.20;;;14.57;;
5428;SDS011;2737;52.386;9.980;2022-12-19T09:31:48;26.80;;;13.00;;
5428;SDS011;2737;52.386;9.980;2022-12-19T09:34:17;24.33;;;13.47;;
5428;SDS011;2737;52.386;9.980;2022-12-19T09:36:44;24.27;;;12.80;;
5428;SDS011;2737;52.386;9.980;2022-12-19T09:39:12;23.37;;;12.00;;
5428;SDS011;2737;52.386;9.980;2022-12-19T09:41:44;26.17;;;12.50;;
5428;SDS011;2737;52.386;9.980;2022-12-19T09:44:34;21.43;;;12.17;;
5428;SDS011;2737;52.386;9.980;2022-12-19T09:47:15;25.97;;;12.13;;
5428;SDS011;2737;52.386;9.980;2022-12-19T09:49:45;23.33;;;11.40;;
5428;SDS011;2737;52.386;9.980;2022-12-19T09:52:14;21.03;;;11.47;;
5428;SDS011;2737;52.386;9.980;2022-12-19T09:54:46;29.47;;;12.80;;
5428;SDS011;2737;52.386;9.980;2022-12-19T09:57:19;22.23;;;11.60;;
5428;SDS011;2737;52.386;9.980;2022-12-19T09:59:52;57.10;;;23.67;;
5428;SDS011;2737;52.386;9.980;2022-12-19T10:02:27;32.80;;;16.80;;
5428;SDS011;2737;52.386;9.980;2022-12-19T10:05:04;26.53;;;13.27;;
5428;SDS011;2737;52.386;9.980;2022-12-19T10:07:39;25.10;;;13.03;;
5428;SDS011;2737;52.386;9.980;2022-12-19T10:10:11;25.77;;;12.70;;
5428;SDS011;2737;52.386;9.980;2022-12-19T10:15:41;25.63;;;12.47;;
5428;SDS011;2737;52.386;9.980;2022-12-19T10:18:16;26.40;;;14.17;;
5428;SDS011;2737;52.386;9.980;2022-12-19T10:20:52;28.53;;;11.70;;
5428;SDS011;2737;52.386;9.980;2022-12-19T10:23:40;20.63;;;11.17;;
5428;SDS011;2737;52.386;9.980;2022-12-19T10:26:20;28.07;;;14.87;;
5428;SDS011;2737;52.386;9.980;2022-12-19T10:28:58;27.97;;;12.40;;
5428;SDS011;2737;52.386;9.980;2022-12-19T10:31:37;20.03;;;10.03;;
5428;SDS011;2737;52.386;9.980;2022-12-19T10:34:12;22.57;;;11.40;;
5428;SDS011;2737;52.386;9.980;2022-12-19T10:36:45;23.73;;;11.73;;
5428;SDS011;2737;52.386;9.980;2022-12-19T10:39:16;20.60;;;11.00;;
5428;SDS011;2737;52.386;9.980;2022-12-19T10:41:51;20.77;;;12.07;;
5428;SDS011;2737;52.386;9.980;2022-12-19T10:44:21;22.17;;;12.73;;
5428;SDS011;2737;52.386;9.980;2022-12-19T10:46:52;22.03;;;11.90;;
5428;SDS011;2737;52.386;9.980;2022-12-19T10:49:20;23.67;;;12.97;;
5428;SDS011;2737;52.386;9.980;2022-12-19T10:51:51;21.40;;;11.33;;
5428;SDS011;2737;52.386;9.980;2022-12-19T10:54:23;23.07;;;11.80;;
5428;SDS011;2737;52.386;9.980;2022-12-19T10:56:51;24.03;;;11.40;;
5428;SDS011;2737;52.386;9.980;2022-12-19T10:59:20;22.67;;;11.40;;
5428;SDS011;2737;52.386;9.980;2022-12-19T11:01:47;18.80;;;11.37;;
5428;SDS011;2737;52.386;9.980;2022-12-19T11:04:26;23.43;;;13.00;;
5428;SDS011;2737;52.386;9.980;2022-12-19T11:07:03;22.00;;;11.73;;
5428;SDS011;2737;52.386;9.980;2022-12-19T11:09:40;26.57;;;12.13;;
5428;SDS011;2737;52.386;9.980;2022-12-19T11:12:10;26.03;;;12.70;;
5428;SDS011;2737;52.386;9.980;2022-12-19T11:14:40;28.73;;;12.67;;
5428;SDS011;2737;52.386;9.980;2022-12-19T11:17:25;27.50;;;13.00;;
5428;SDS011;2737;52.386;9.980;2022-12-19T11:19:53;27.97;;;13.70;;
5428;SDS011;2737;52.386;9.980;2022-12-19T11:22:23;25.93;;;12.80;;
5428;SDS011;2737;52.386;9.980;2022-12-19T11:24:52;24.47;;;13.47;;
5428;SDS011;2737;52.386;9.980;2022-12-19T11:27:34;28.33;;;14.20;;
5428;SDS011;2737;52.386;9.980;2022-12-19T11:30:06;31.40;;;14.53;;
5428;SDS011;2737;52.386;9.980;2022-12-19T11:32:35;25.27;;;13.40;;
5428;SDS011;2737;52.386;9.980;2022-12-19T11:35:04;25.60;;;13.13;;
5428;SDS011;2737;52.386;9.980;2022-12-19T11:37:41;28.63;;;15.07;;
5428;SDS011;2737;52.386;9.980;2022-12-19T11:40:14;25.63;;;14.73;;
5428;SDS011;2737;52.386;9.980;2022-12-19T11:42:50;27.67;;;15.17;;
5428;SDS011;2737;52.386;9.980;2022-12-19T11:45:23;31.43;;;15.70;;
5428;SDS011;2737;52.386;9.980;2022-12-19T11:47:57;30.87;;;15.77;;
5428;SDS011;2737;52.386;9.980;2022-12-19T11:50:31;39.50;;;18.47;;
5428;SDS011;2737;52.386;9.980;2022-12-19T11:53:01;30.73;;;15.73;;
5428;SDS011;2737;52.386;9.980;2022-12-19T11:55:35;36.70;;;16.10;;
5428;SDS011;2737;52.386;9.980;2022-12-19T11:58:09;31.00;;;16.17;;
5428;SDS011;2737;52.386;9.980;2022-12-19T12:00:37;32.17;;;16.10;;
5428;SDS011;2737;52.386;9.980;2022-12-19T12:03:24;30.67;;;15.53;;
5428;SDS011;2737;52.386;9.980;2022-12-19T12:06:10;33.57;;;16.63;;
5428;SDS011;2737;52.386;9.980;2022-12-19T12:08:55;34.80;;;17.10;;
5428;SDS011;2737;52.386;9.980;2022-12-19T12:11:27;34.23;;;16.50;;
5428;SDS011;2737;52.386;9.980;2022-12-19T12:14:12;31.63;;;17.53;;
5428;SDS011;2737;52.386;9.980;2022-12-19T12:16:50;31.17;;;16.23;;
5428;SDS011;2737;52.386;9.980;2022-12-19T12:19:29;32.03;;;16.80;;
5428;SDS011;2737;52.386;9.980;2022-12-19T12:22:10;33.10;;;15.70;;
5428;SDS011;2737;52.386;9.980;2022-12-19T12:24:47;33.83;;;17.07;;
5428;SDS011;2737;52.386;9.980;2022-12-19T12:27:28;34.43;;;17.03;;
5428;SDS011;2737;52.386;9.980;2022-12-19T12:30:08;30.70;;;16.17;;
5428;SDS011;2737;52.386;9.980;2022-12-19T12:32:43;28.70;;;14.80;;
5428;SDS011;2737;52.386;9.980;2022-12-19T12:35:18;29.50;;;14.70;;
5428;SDS011;2737;52.386;9.980;2022-12-19T12:37:55;27.93;;;14.83;;
5428;SDS011;2737;52.386;9.980;2022-12-19T12:40:45;29.53;;;15.30;;
5428;SDS011;2737;52.386;9.980;2022-12-19T12:43:32;32.20;;;15.07;;
5428;SDS011;2737;52.386;9.980;2022-12-19T12:46:11;33.20;;;16.70;;
5428;SDS011;2737;52.386;9.980;2022-12-19T12:48:41;26.67;;;15.13;;
5428;SDS011;2737;52.386;9.980;2022-12-19T12:51:12;26.77;;;14.47;;
5428;SDS011;2737;52.386;9.980;2022-12-19T12:53:43;27.30;;;14.80;;
5428;SDS011;2737;52.386;9.980;2022-12-19T12:56:12;34.87;;;16.23;;
5428;SDS011;2737;52.386;9.980;2022-12-19T12:58:44;32.93;;;15.13;;
5428;SDS011;2737;52.386;9.980;2022-12-19T13:01:33;25.93;;;14.17;;
5428;SDS011;2737;52.386;9.980;2022-12-19T13:04:02;24.47;;;14.00;;
5428;SDS011;2737;52.386;9.980;2022-12-19T13:09:43;27.57;;;13.77;;
5428;SDS011;2737;52.386;9.980;2022-12-19T13:12:15;27.93;;;14.27;;
5428;SDS011;2737;52.386;9.980;2022-12-19T13:18:13;26.07;;;14.03;;
5428;SDS011;2737;52.386;9.980;2022-12-19T13:21:04;25.27;;;13.47;;
5428;SDS011;2737;52.386;9.980;2022-12-19T13:29:27;25.03;;;13.80;;
5428;SDS011;2737;52.386;9.980;2022-12-19T13:32:12;27.57;;;13.60;;
5428;SDS011;2737;52.386;9.980;2022-12-19T13:34:51;26.50;;;14.23;;
5428;SDS011;2737;52.386;9.980;2022-12-19T13:37:26;25.63;;;12.47;;
5428;SDS011;2737;52.386;9.980;2022-12-19T13:40:00;28.67;;;14.83;;
5428;SDS011;2737;52.386;9.980;2022-12-19T13:42:35;25.00;;;13.00;;
5428;SDS011;2737;52.386;9.980;2022-12-19T13:45:26;25.40;;;12.50;;
5428;SDS011;2737;52.386;9.980;2022-12-19T13:47:57;24.03;;;13.50;;
5428;SDS011;2737;52.386;9.980;2022-12-19T13:50:28;25.47;;;14.23;;
5428;SDS011;2737;52.386;9.980;2022-12-19T13:52:58;21.77;;;12.40;;
5428;SDS011;2737;52.386;9.980;2022-12-19T13:55:26;25.20;;;13.70;;
5428;SDS011;2737;52.386;9.980;2022-12-19T13:57:54;26.10;;;13.53;;
5428;SDS011;2737;52.386;9.980;2022-12-19T14:00:28;22.77;;;13.27;;
5428;SDS011;2737;52.386;9.980;2022-12-19T14:02:59;23.93;;;12.73;;
5428;SDS011;2737;52.386;9.980;2022-12-19T14:05:29;27.90;;;14.00;;
5428;SDS011;2737;52.386;9.980;2022-12-19T14:08:00;23.57;;;12.93;;
5428;SDS011;2737;52.386;9.980;2022-12-19T14:10:30;33.20;;;14.90;;
5428;SDS011;2737;52.386;9.980;2022-12-19T14:13:01;29.07;;;13.27;;
5428;SDS011;2737;52.386;9.980;2022-12-19T14:15:48;26.70;;;13.57;;
5428;SDS011;2737;52.386;9.980;2022-12-19T14:18:17;26.90;;;14.27;;
5428;SDS011;2737;52.386;9.980;2022-12-19T14:20:47;29.33;;;14.23;;
5428;SDS011;2737;52.386;9.980;2022-12-19T14:23:16;25.50;;;13.93;;
5428;SDS011;2737;52.386;9.980;2022-12-19T14:25:45;25.13;;;13.83;;
5428;SDS011;2737;52.386;9.980;2022-12-19T14:28:16;26.80;;;13.97;;
5428;SDS011;2737;52.386;9.980;2022-12-19T14:30:46;26.00;;;13.63;;
5428;SDS011;2737;52.386;9.980;2022-12-19T14:33:18;26.47;;;14.47;;
5428;SDS011;2737;52.386;9.980;2022-12-19T14:35:50;26.63;;;13.90;;
5428;SDS011;2737;52.386;9.980;2022-12-19T14:38:19;30.37;;;14.87;;
5428;SDS011;2737;52.386;9.980;2022-12-19T14:40:49;25.73;;;13.53;;
5428;SDS011;2737;52.386;9.980;2022-12-19T14:43:17;28.77;;;14.50;;
5428;SDS011;2737;52.386;9.980;2022-12-19T14:46:11;30.10;;;13.50;;
5428;SDS011;2737;52.386;9.980;2022-12-19T14:48:48;25.67;;;13.70;;
5428;SDS011;2737;52.386;9.980;2022-12-19T14:51:24;26.13;;;14.30;;
5428;SDS011;2737;52.386;9.980;2022-12-19T14:54:04;25.30;;;13.47;;
5428;SDS011;2737;52.386;9.980;2022-12-19T14:56:41;23.10;;;11.80;;
5428;SDS011;2737;52.386;9.980;2022-12-19T14:59:20;24.93;;;13.33;;
5428;SDS011;2737;52.386;9.980;2022-12-19T15:01:54;27.43;;;13.30;;
5428;SDS011;2737;52.386;9.980;2022-12-19T15:04:26;24.30;;;13.20;;
5428;SDS011;2737;52.386;9.980;2022-12-19T15:06:58;35.23;;;17.80;;
5428;SDS011;2737;52.386;9.980;2022-12-19T15:09:29;25.37;;;12.17;;
5428;SDS011;2737;52.386;9.980;2022-12-19T15:12:02;28.97;;;12.80;;
5428;SDS011;2737;52.386;9.980;2022-12-19T15:15:00;26.53;;;14.47;;
5428;SDS011;2737;52.386;9.980;2022-12-19T15:17:43;24.40;;;12.63;;
5428;SDS011;2737;52.386;9.980;2022-12-19T15:20:11;24.60;;;12.53;;
5428;SDS011;2737;52.386;9.980;2022-12-19T15:22:40;24.87;;;12.80;;
5428;SDS011;2737;52.386;9.980;2022-12-19T15:25:11;21.83;;;12.07;;
5428;SDS011;2737;52.386;9.980;2022-12-19T15:27:39;26.97;;;13.80;;
5428;SDS011;2737;52.386;9.980;2022-12-19T15:30:11;26.93;;;13.33;;
5428;SDS011;2737;52.386;9.980;2022-12-19T15:32:41;24.63;;;13.27;;